sensor_id;sensor_type;location;lat;lon;timestamp;temperature;humidity
41080;DHT22;26826;50.718;7.114;2023-11-19T00:06:22;10.70;99.90
41080;DHT22;26826;50.718;7.114;2023-11-19T00:16:23;10.70;99.90
41080;DHT22;26826;50.718;7.114;2023-11-19T00:26:23;10.50;99.90
41080;DHT22;26826;50.718;7.114;2023-11-19T00:36:24;10.20;99.90
41080;DHT22;26826;50.718;7.114;2023-11-19T00:46:25;10.40;99.90
41080;DHT22;26826;50.718;7.114;2023-11-19T00:56:26;10.30;99.90
41080;DHT22;26826;50.718;7.114;2023-11-19T01:06:29;10.30;99.90
41080;DHT22;26826;50.718;7.114;2023-11-19T01:16:30;10.60;99.90
41080;DHT22;26826;50.718;7.114;2023-11-19T01:26:31;11.00;99.90
41080;DHT22;26826;50.718;7.114;2023-11-19T01:36:31;11.20;99.90
41080;DHT22;26826;50.718;7.114;2023-11-19T01:46:32;11.40;99.90
41080;DHT22;26826;50.718;7.114;2023-11-19T01:56:33;11.40;99.90
41080;DHT22;26826;50.718;7.114;2023-11-19T02:06:34;11.50;99.90
41080;DHT22;26826;50.718;7.114;2023-11-19T02:16:34;11.70;99.90
41080;DHT22;26826;50.718;7.114;2023-11-19T02:36:39;11.70;99.90
41080;DHT22;26826;50.718;7.114;2023-11-19T02:46:41;11.60;99.90
41080;DHT22;26826;50.718;7.114;2023-11-19T02:56:42;11.70;99.90
41080;DHT22;26826;50.718;7.114;2023-11-19T03:06:43;11.60;99.90
41080;DHT22;26826;50.718;7.114;2023-11-19T03:26:49;11.50;99.90
41080;DHT22;26826;50.718;7.114;2023-11-19T03:36:53;11.40;99.90
41080;DHT22;26826;50.718;7.114;2023-11-19T03:46:53;11.40;99.90
41080;DHT22;26826;50.718;7.114;2023-11-19T03:56:54;11.50;99.90
41080;DHT22;26826;50.718;7.114;2023-11-19T04:06:54;11.10;99.90
41080;DHT22;26826;50.718;7.114;2023-11-19T04:16:54;11.50;99.90
41080;DHT22;26826;50.718;7.114;2023-11-19T04:26:55;11.50;99.90
41080;DHT22;26826;50.718;7.114;2023-11-19T04:36:55;11.70;99.90
41080;DHT22;26826;50.718;7.114;2023-11-19T04:46:56;12.10;99.90
41080;DHT22;26826;50.718;7.114;2023-11-19T04:56:57;12.30;99.90
41080;DHT22;26826;50.718;7.114;2023-11-19T05:06:58;12.20;99.90
41080;DHT22;26826;50.718;7.114;2023-11-19T05:16:58;12.40;99.90
41080;DHT22;26826;50.718;7.114;2023-11-19T05:26:58;12.40;99.90
41080;DHT22;26826;50.718;7.114;2023-11-19T05:36:59;12.20;99.90
41080;DHT22;26826;50.718;7.114;2023-11-19T05:47:00;12.20;99.90
41080;DHT22;26826;50.718;7.114;2023-11-19T05:57:00;12.10;99.90
41080;DHT22;26826;50.718;7.114;2023-11-19T06:07:01;12.30;99.90
41080;DHT22;26826;50.718;7.114;2023-11-19T06:17:01;12.30;99.90
41080;DHT22;26826;50.718;7.114;2023-11-19T06:27:02;12.40;99.90
41080;DHT22;26826;50.718;7.114;2023-11-19T06:37:03;12.40;99.90
41080;DHT22;26826;50.718;7.114;2023-11-19T06:47:04;12.10;99.90
41080;DHT22;26826;50.718;7.114;2023-11-19T06:57:05;12.20;99.90
41080;DHT22;26826;50.718;7.114;2023-11-19T07:07:05;12.10;99.90
41080;DHT22;26826;50.718;7.114;2023-11-19T07:17:06;11.80;99.90
41080;DHT22;26826;50.718;7.114;2023-11-19T07:27:07;11.90;99.90
41080;DHT22;26826;50.718;7.114;2023-11-19T07:37:09;12.00;99.90
41080;DHT22;26826;50.718;7.114;2023-11-19T07:47:09;12.00;99.90
41080;DHT22;26826;50.718;7.114;2023-11-19T07:57:10;12.30;99.90
41080;DHT22;26826;50.718;7.114;2023-11-19T08:07:11;12.40;99.90
41080;DHT22;26826;50.718;7.114;2023-11-19T08:17:11;12.60;99.90
41080;DHT22;26826;50.718;7.114;2023-11-19T08:27:12;13.00;99.90
41080;DHT22;26826;50.718;7.114;2023-11-19T08:37:12;13.00;99.90
41080;DHT22;26826;50.718;7.114;2023-11-19T08:47:13;13.40;99.90
41080;DHT22;26826;50.718;7.114;2023-11-19T08:57:14;13.70;99.90
41080;DHT22;26826;50.718;7.114;2023-11-19T09:07:14;13.80;99.90
41080;DHT22;26826;50.718;7.114;2023-11-19T09:17:15;13.60;99.90
41080;DHT22;26826;50.718;7.114;2023-11-19T09:27:15;13.60;99.90
41080;DHT22;26826;50.718;7.114;2023-11-19T09:37:16;14.00;99.90
41080;DHT22;26826;50.718;7.114;2023-11-19T09:47:16;14.60;99.90
41080;DHT22;26826;50.718;7.114;2023-11-19T09:57:17;15.30;99.90
41080;DHT22;26826;50.718;7.114;2023-11-19T10:07:18;15.70;99.90
41080;DHT22;26826;50.718;7.114;2023-11-19T10:17:19;15.40;99.90
41080;DHT22;26826;50.718;7.114;2023-11-19T10:27:19;15.70;99.90
41080;DHT22;26826;50.718;7.114;2023-11-19T10:37:29;16.10;99.90
41080;DHT22;26826;50.718;7.114;2023-11-19T10:47:32;16.50;99.90
41080;DHT22;26826;50.718;7.114;2023-11-19T10:57:34;17.00;99.90
41080;DHT22;26826;50.718;7.114;2023-11-19T11:07:36;16.90;99.90
41080;DHT22;26826;50.718;7.114;2023-11-19T11:17:39;17.10;99.90
41080;DHT22;26826;50.718;7.114;2023-11-19T11:27:52;16.30;99.90
41080;DHT22;26826;50.718;7.114;2023-11-19T11:38:04;15.70;99.90
41080;DHT22;26826;50.718;7.114;2023-11-19T11:58:07;14.70;99.90
41080;DHT22;26826;50.718;7.114;2023-11-19T12:08:10;13.90;99.90
41080;DHT22;26826;50.718;7.114;2023-11-19T12:18:11;13.80;99.90
41080;DHT22;26826;50.718;7.114;2023-11-19T12:28:19;13.80;99.90
41080;DHT22;26826;50.718;7.114;2023-11-19T12:38:22;13.80;99.90
41080;DHT22;26826;50.718;7.114;2023-11-19T12:48:23;13.90;99.90
41080;DHT22;26826;50.718;7.114;2023-11-19T13:08:35;13.90;99.90
41080;DHT22;26826;50.718;7.114;2023-11-19T13:18:36;13.80;99.90
41080;DHT22;26826;50.718;7.114;2023-11-19T13:28:37;12.80;99.90
41080;DHT22;26826;50.718;7.114;2023-11-19T13:38:37;13.00;99.90
41080;DHT22;26826;50.718;7.114;2023-11-19T13:48:38;13.40;99.90
41080;DHT22;26826;50.718;7.114;2023-11-19T13:58:38;13.20;99.90
41080;DHT22;26826;50.718;7.114;2023-11-19T14:08:40;13.90;99.90
41080;DHT22;26826;50.718;7.114;2023-11-19T14:18:40;14.60;99.90
41080;DHT22;26826;50.718;7.114;2023-11-19T14:28:41;15.10;99.90
41080;DHT22;26826;50.718;7.114;2023-11-19T14:38:41;14.50;99.90
41080;DHT22;26826;50.718;7.114;2023-11-19T14:48:42;14.20;99.90
41080;DHT22;26826;50.718;7.114;2023-11-19T14:58:42;13.80;99.90
41080;DHT22;26826;50.718;7.114;2023-11-19T15:08:44;13.60;99.90
41080;DHT22;26826;50.718;7.114;2023-11-19T15:18:45;13.50;99.90
41080;DHT22;26826;50.718;7.114;2023-11-19T15:28:46;13.30;99.90
41080;DHT22;26826;50.718;7.114;2023-11-19T15:38:46;13.20;99.90
41080;DHT22;26826;50.718;7.114;2023-11-19T15:48:47;12.90;99.90
41080;DHT22;26826;50.718;7.114;2023-11-19T15:58:47;12.90;99.90
41080;DHT22;26826;50.718;7.114;2023-11-19T16:08:49;12.80;99.90
41080;DHT22;26826;50.718;7.114;2023-11-19T16:18:51;12.70;99.90
41080;DHT22;26826;50.718;7.114;2023-11-19T16:28:51;12.50;99.90
41080;DHT22;26826;50.718;7.114;2023-11-19T16:38:53;12.50;99.90
41080;DHT22;26826;50.718;7.114;2023-11-19T16:48:53;12.50;99.90
41080;DHT22;26826;50.718;7.114;2023-11-19T16:58:54;12.40;99.90
41080;DHT22;26826;50.718;7.114;2023-11-19T17:08:54;12.50;99.90
41080;DHT22;26826;50.718;7.114;2023-11-19T17:18:54;12.60;99.90
41080;DHT22;26826;50.718;7.114;2023-11-19T17:28:55;12.50;99.90
41080;DHT22;26826;50.718;7.114;2023-11-19T17:38:56;12.50;99.90
41080;DHT22;26826;50.718;7.114;2023-11-19T17:48:56;12.60;99.90
41080;DHT22;26826;50.718;7.114;2023-11-19T17:58:56;12.70;99.90
41080;DHT22;26826;50.718;7.114;2023-11-19T18:08:57;12.70;99.90
41080;DHT22;26826;50.718;7.114;2023-11-19T18:18:58;12.70;99.90
41080;DHT22;26826;50.718;7.114;2023-11-19T18:28:59;12.70;99.90
41080;DHT22;26826;50.718;7.114;2023-11-19T18:39:00;12.70;99.90
41080;DHT22;26826;50.718;7.114;2023-11-19T18:49:00;12.60;99.90
41080;DHT22;26826;50.718;7.114;2023-11-19T18:59:02;12.60;99.90
41080;DHT22;26826;50.718;7.114;2023-11-19T19:09:03;12.70;99.90
41080;DHT22;26826;50.718;7.114;2023-11-19T19:19:04;12.60;99.90
41080;DHT22;26826;50.718;7.114;2023-11-19T19:29:04;12.60;99.90
41080;DHT22;26826;50.718;7.114;2023-11-19T19:39:05;12.50;99.90
41080;DHT22;26826;50.718;7.114;2023-11-19T19:49:14;12.50;99.90
41080;DHT22;26826;50.718;7.114;2023-11-19T19:59:14;12.50;99.90
41080;DHT22;26826;50.718;7.114;2023-11-19T20:09:14;12.60;99.90
41080;DHT22;26826;50.718;7.114;2023-11-19T20:19:15;12.50;99.90
41080;DHT22;26826;50.718;7.114;2023-11-19T20:29:16;12.50;99.90
41080;DHT22;26826;50.718;7.114;2023-11-19T20:39:16;12.50;99.90
41080;DHT22;26826;50.718;7.114;2023-11-19T20:49:16;12.60;99.90
41080;DHT22;26826;50.718;7.114;2023-11-19T20:59:17;12.60;99.90
41080;DHT22;26826;50.718;7.114;2023-11-19T21:09:19;12.50;99.90
41080;DHT22;26826;50.718;7.114;2023-11-19T21:29:22;12.60;99.90
41080;DHT22;26826;50.718;7.114;2023-11-19T21:39:23;12.50;99.90
41080;DHT22;26826;50.718;7.114;2023-11-19T21:49:23;12.50;99.90
41080;DHT22;26826;50.718;7.114;2023-11-19T21:59:24;12.50;99.90
41080;DHT22;26826;50.718;7.114;2023-11-19T22:09:24;12.60;99.90
41080;DHT22;26826;50.718;7.114;2023-11-19T22:19:25;12.50;99.90
41080;DHT22;26826;50.718;7.114;2023-11-19T22:29:28;12.40;99.90
41080;DHT22;26826;50.718;7.114;2023-11-19T22:39:29;12.40;99.90
41080;DHT22;26826;50.718;7.114;2023-11-19T22:49:29;12.30;99.90
41080;DHT22;26826;50.718;7.114;2023-11-19T22:59:30;12.30;99.90
41080;DHT22;26826;50.718;7.114;2023-11-19T23:09:33;12.30;99.90
41080;DHT22;26826;50.718;7.114;2023-11-19T23:19:35;12.30;99.90
41080;DHT22;26826;50.718;7.114;2023-11-19T23:29:36;12.30;99.90
41080;DHT22;26826;50.718;7.114;2023-11-19T23:39:36;12.20;99.90
41080;DHT22;26826;50.718;7.114;2023-11-19T23:49:38;12.20;99.90
41080;DHT22;26826;50.718;7.114;2023-11-19T23:59:40;11.80;99.90
